Time;durP1;ratioP1;P1;durP2;ratioP2;P2;SDS_P1;SDS_P2;PMS_P1;PMS_P2;Temp;Humidity;BMP_temperature;BMP_pressure;BME280_temperature;BME280_humidity;BME280_pressure;Samples;Min_cycle;Max_cycle;Signal;HPM_P1;HPM_P2
2023/07/07 00:02:10;;;;;;;0.20;0.20;;;;;;;21.28;80.04;99812.19;5024276;28;20719;-71
2023/07/07 00:04:37;;;;;;;0.20;0.20;;;;;;;21.22;79.43;99818.00;5023549;28;20259;-71
2023/07/07 00:07:04;;;;;;;0.20;0.20;;;;;;;21.18;79.49;99814.28;5024599;28;20149;-70
2023/07/07 00:09:31;;;;;;;0.20;0.20;;;;;;;21.18;79.90;99817.06;5025481;28;20534;-71
2023/07/07 00:11:57;;;;;;;0.20;0.20;;;;;;;21.16;80.09;99818.56;5025899;28;20537;-71
2023/07/07 00:14:25;;;;;;;0.25;0.25;;;;;;;21.20;80.42;99819.47;5025821;28;20071;-72
2023/07/07 00:16:51;;;;;;;0.20;0.20;;;;;;;21.20;80.11;99817.53;5024971;28;20049;-71
2023/07/07 00:19:18;;;;;;;0.20;0.20;;;;;;;21.15;80.01;99815.00;5025394;28;20059;-71
2023/07/07 00:21:44;;;;;;;0.20;0.20;;;;;;;21.14;80.74;99815.31;5021412;28;20053;-71
2023/07/07 00:24:11;;;;;;;0.22;0.22;;;;;;;21.16;80.62;99813.81;5024087;28;20056;-72
2023/07/07 00:26:37;;;;;;;0.13;0.13;;;;;;;21.20;80.33;99823.09;5024432;28;20046;-72
2023/07/07 00:29:05;;;;;;;0.20;0.20;;;;;;;21.18;80.52;99817.06;5024992;28;21086;-70
2023/07/07 00:31:34;;;;;;;0.28;0.28;;;;;;;21.13;80.61;99813.69;5026189;28;20103;-71
2023/07/07 00:34:00;;;;;;;0.20;0.20;;;;;;;21.14;80.96;99821.69;5024006;28;20500;-72
2023/07/07 00:36:26;;;;;;;0.20;0.20;;;;;;;21.13;81.63;99825.63;5022809;28;20517;-72
2023/07/07 00:38:52;;;;;;;0.20;0.20;;;;;;;21.10;81.57;99827.13;5025795;28;20072;-72
2023/07/07 00:41:18;;;;;;;0.20;0.20;;;;;;;21.11;81.82;99823.19;5023327;28;20045;-72
2023/07/07 00:44:05;;;;;;;0.20;0.20;;;;;;;21.09;81.24;99811.63;5021468;28;20055;-71
2023/07/07 00:46:33;;;;;;;;;;;;;;;21.12;81.73;99818.44;5006856;28;20504;-71
2023/07/07 00:49:02;;;;;;;0.20;0.20;;;;;;;21.08;81.81;99807.22;5024174;28;20888;-71
2023/07/07 00:51:32;;;;;;;0.20;0.20;;;;;;;21.02;81.75;99805.81;5023707;28;20088;-71
2023/07/07 00:54:03;;;;;;;0.20;0.20;;;;;;;20.92;82.46;99801.50;5023915;28;20053;-72
2023/07/07 00:56:35;;;;;;;0.20;0.20;;;;;;;20.85;82.44;99809.63;5023703;28;20516;-71
2023/07/07 00:59:05;;;;;;;0.20;0.20;;;;;;;20.82;83.21;99800.00;5025718;28;20094;-71
2023/07/07 01:01:34;;;;;;;0.20;0.20;;;;;;;20.77;83.39;99800.19;5009485;28;20428;-70
2023/07/07 01:04:05;;;;;;;0.20;0.20;;;;;;;20.75;84.04;99798.91;5024717;28;20427;-71
2023/07/07 01:06:34;;;;;;;0.20;0.20;;;;;;;20.75;84.19;99799.69;5008219;28;20512;-71
2023/07/07 01:09:14;;;;;;;0.20;0.20;;;;;;;20.74;83.79;99794.50;5025844;28;20163;-70
2023/07/07 01:11:47;;;;;;;0.20;0.20;;;;;;;20.73;84.18;99787.34;5020859;28;20140;-71
2023/07/07 01:14:18;;;;;;;0.20;0.20;;;;;;;20.73;84.42;99790.91;5025454;28;20049;-71
2023/07/07 01:16:54;;;;;;;0.20;0.20;;;;;;;20.71;84.38;99787.66;5005057;28;20037;-71
2023/07/07 01:20:00;;;;;;;0.20;0.20;;;;;;;20.70;84.15;99791.59;5022568;28;20045;-71
2023/07/07 01:23:06;;;;;;;0.20;0.20;;;;;;;20.69;84.34;99781.66;4982614;28;20542;-70
2023/07/07 01:25:55;;;;;;;0.20;0.20;;;;;;;20.67;84.65;99776.41;4968334;28;20046;-70
2023/07/07 01:28:37;;;;;;;0.20;0.20;;;;;;;20.67;84.38;99764.50;4964913;28;20595;-71
2023/07/07 01:31:10;;;;;;;0.20;0.20;;;;;;;20.65;84.93;99756.53;4950088;28;20149;-71
2023/07/07 01:33:37;;;;;;;0.20;0.20;;;;;;;20.62;85.03;99753.63;4946816;28;20542;-71
2023/07/07 01:36:04;;;;;;;0.20;0.20;;;;;;;20.59;85.22;99745.97;4947457;28;20061;-72
2023/07/07 01:38:33;;;;;;;0.20;0.20;;;;;;;20.61;84.96;99746.47;4963947;28;20103;-71
2023/07/07 01:41:07;;;;;;;0.20;0.20;;;;;;;20.62;84.96;99748.09;4946117;28;20149;-70
2023/07/07 01:43:47;;;;;;;0.20;0.20;;;;;;;20.57;85.50;99742.72;4977100;28;20573;-71
2023/07/07 01:46:24;;;;;;;0.30;0.30;;;;;;;20.61;85.52;99736.16;4934022;28;20148;-71
2023/07/07 01:48:58;;;;;;;0.20;0.20;;;;;;;20.59;85.37;99727.34;4982015;28;20054;-70
2023/07/07 01:51:28;;;;;;;0.20;0.20;;;;;;;20.60;85.33;99726.19;4975033;28;20515;-72
2023/07/07 01:53:56;;;;;;;0.22;0.22;;;;;;;20.62;85.37;99725.88;5009017;28;20046;-71
2023/07/07 01:56:27;;;;;;;0.20;0.20;;;;;;;20.62;85.25;99723.09;5005805;28;20056;-71
2023/07/07 01:58:53;;;;;;;0.20;0.20;;;;;;;20.62;85.29;99728.66;5024279;28;20045;-72
2023/07/07 02:01:21;;;;;;;0.20;0.20;;;;;;;20.62;85.29;99710.00;5024826;28;20500;-71
2023/07/07 02:03:48;;;;;;;0.20;0.20;;;;;;;20.68;85.66;99707.81;5009482;28;20056;-71
2023/07/07 02:06:14;;;;;;;0.20;0.20;;;;;;;20.71;85.00;99709.88;4986743;28;20521;-72
2023/07/07 02:08:40;;;;;;;0.30;0.30;;;;;;;20.75;84.68;99691.38;5023044;28;20049;-71
2023/07/07 02:11:06;;;;;;;0.20;0.20;;;;;;;20.78;85.05;99699.03;5023267;28;20575;-72
2023/07/07 02:13:34;;;;;;;0.20;0.20;;;;;;;20.79;85.14;99705.38;5005960;28;20146;-71
2023/07/07 02:16:01;;;;;;;0.30;0.30;;;;;;;20.83;85.02;99698.81;5021996;28;20513;-70
2023/07/07 02:18:28;;;;;;;0.20;0.20;;;;;;;20.85;84.53;99698.50;5006535;28;20068;-71
2023/07/07 02:20:54;;;;;;;0.30;0.30;;;;;;;20.87;84.47;99704.50;5004975;28;20053;-71
2023/07/07 02:23:20;;;;;;;0.30;0.30;;;;;;;20.87;84.86;99710.06;5022090;28;20049;-71
2023/07/07 02:25:46;;;;;;;0.30;0.30;;;;;;;20.88;85.09;99708.06;5022570;28;20530;-71
2023/07/07 02:28:13;;;;;;;0.20;0.20;;;;;;;20.90;84.52;99711.31;5024655;28;20591;-71
2023/07/07 02:30:39;;;;;;;0.28;0.28;;;;;;;20.87;84.63;99704.50;5006108;28;20606;-70
2023/07/07 02:33:08;;;;;;;0.20;0.20;;;;;;;20.89;84.46;99704.13;5021634;28;20091;-71
2023/07/07 02:35:36;;;;;;;0.30;0.30;;;;;;;20.98;84.35;99707.63;5020462;28;20463;-71
2023/07/07 02:38:02;;;;;;;0.30;0.30;;;;;;;21.00;84.42;99712.84;5023322;28;20056;-71
2023/07/07 02:40:29;;;;;;;0.20;0.20;;;;;;;21.03;84.41;99714.91;5004675;28;20132;-71
2023/07/07 02:42:55;;;;;;;;;;;;;;;21.02;84.23;99716.88;5022908;28;20045;-72
2023/07/07 02:45:21;;;;;;;0.20;0.20;;;;;;;21.02;83.85;99714.09;5022095;28;20584;-71
2023/07/07 02:47:47;;;;;;;0.20;0.20;;;;;;;21.04;83.69;99722.88;5013133;28;20045;-72
2023/07/07 02:50:14;;;;;;;0.20;0.20;;;;;;;21.09;83.76;99721.84;4988512;28;20052;-71
2023/07/07 02:52:41;;;;;;;0.20;0.20;;;;;;;21.08;83.62;99723.00;4994399;28;20136;-72
2023/07/07 02:55:08;;;;;;;0.30;0.30;;;;;;;21.18;83.48;99722.56;5021241;28;20323;-72
2023/07/07 02:57:34;;;;;;;0.20;0.20;;;;;;;21.20;83.14;99725.78;5020740;28;20060;-72
2023/07/07 03:00:01;;;;;;;0.20;0.20;;;;;;;21.29;82.60;99727.63;5021525;28;20042;-71
2023/07/07 03:02:27;;;;;;;0.30;0.30;;;;;;;21.39;82.07;99739.09;4989028;28;20644;-72
2023/07/07 03:04:53;;;;;;;0.30;0.30;;;;;;;21.40;82.04;99731.56;5020640;28;20107;-72
2023/07/07 03:07:20;;;;;;;0.30;0.30;;;;;;;21.49;81.52;99731.41;5007284;28;20037;-71
2023/07/07 03:09:48;;;;;;;;;;;;;;;21.50;81.74;99727.47;5020425;28;20053;-72
2023/07/07 03:12:16;;;;;;;0.20;0.20;;;;;;;21.54;81.72;99729.22;5020583;28;19925;-72
2023/07/07 03:14:42;;;;;;;0.20;0.20;;;;;;;21.58;81.10;99714.59;5022841;28;20103;-72
2023/07/07 03:17:09;;;;;;;0.30;0.30;;;;;;;21.62;80.96;99718.28;5024905;28;20054;-72
2023/07/07 03:19:41;;;;;;;0.30;0.30;;;;;;;21.67;80.57;99726.44;5009376;28;20065;-71
2023/07/07 03:22:12;;;;;;;0.30;0.30;;;;;;;21.74;80.62;99726.63;5005258;28;20111;-71
2023/07/07 03:25:07;;;;;;;0.30;0.30;;;;;;;21.83;80.22;99734.84;5023790;28;20164;-71
2023/07/07 03:27:46;;;;;;;0.30;0.30;;;;;;;21.86;79.58;99747.25;5009493;28;20058;-72
2023/07/07 03:30:27;;;;;;;0.30;0.30;;;;;;;21.83;79.70;99750.72;5023792;28;20045;-72
2023/07/07 03:33:06;;;;;;;0.30;0.30;;;;;;;21.79;79.55;99747.84;5024297;28;20111;-72
2023/07/07 03:35:33;;;;;;;0.20;0.20;;;;;;;21.73;80.32;99738.13;5007387;28;20168;-73
2023/07/07 03:37:59;;;;;;;0.20;0.20;;;;;;;21.62;80.42;99734.97;5026455;28;20049;-72
2023/07/07 03:40:28;;;;;;;0.20;0.20;;;;;;;21.52;81.25;99736.28;5008051;28;20065;-71
2023/07/07 03:42:55;;;;;;;0.30;0.30;;;;;;;21.56;81.26;99731.66;5025449;28;20590;-71
2023/07/07 03:45:22;;;;;;;0.22;0.22;;;;;;;21.65;80.90;99734.28;5008979;28;20104;-72
2023/07/07 03:47:50;;;;;;;0.20;0.20;;;;;;;21.65;81.06;99746.25;5025738;28;20450;-72
2023/07/07 03:50:19;;;;;;;0.20;0.20;;;;;;;21.54;81.45;99737.56;5026771;28;20050;-71
2023/07/07 03:52:45;;;;;;;0.30;0.30;;;;;;;21.65;81.55;99748.19;5024829;28;20099;-72
2023/07/07 03:55:11;;;;;;;0.30;0.30;;;;;;;21.78;81.04;99741.47;5023927;28;20157;-72
2023/07/07 03:57:39;;;;;;;0.20;0.20;;;;;;;21.89;80.95;99739.00;5026427;28;20084;-71
2023/07/07 04:00:07;;;;;;;0.30;0.30;;;;;;;22.03;80.14;99737.78;5024128;28;20072;-72
2023/07/07 04:02:39;;;;;;;0.30;0.30;;;;;;;21.96;79.85;99733.63;5028417;28;20140;-72
2023/07/07 04:05:06;;;;;;;0.30;0.30;;;;;;;21.93;79.96;99745.47;5026265;28;20091;-72
2023/07/07 04:07:32;;;;;;;0.20;0.20;;;;;;;21.86;80.13;99730.53;4985628;28;20045;-72
2023/07/07 04:10:01;;;;;;;0.20;0.20;;;;;;;21.75;80.73;99725.47;4994256;28;20462;-71
2023/07/07 04:12:29;;;;;;;0.30;0.30;;;;;;;21.71;80.93;99732.09;5024546;28;20234;-71
2023/07/07 04:14:58;;;;;;;0.30;0.30;;;;;;;21.72;80.80;99728.16;5001743;28;20057;-71
2023/07/07 04:17:24;;;;;;;0.30;0.30;;;;;;;21.77;80.84;99727.91;4988902;28;20054;-73
2023/07/07 04:19:50;;;;;;;0.30;0.30;;;;;;;21.86;80.88;99724.97;5005712;28;20104;-71
2023/07/07 04:22:16;;;;;;;0.30;0.30;;;;;;;21.98;80.48;99722.16;5008183;28;20049;-72
2023/07/07 04:24:42;;;;;;;0.30;0.30;;;;;;;22.15;79.48;99720.22;4989419;28;20045;-72
2023/07/07 04:27:10;;;;;;;0.30;0.30;;;;;;;22.25;79.09;99722.50;4990458;28;20403;-72
2023/07/07 04:29:37;;;;;;;0.30;0.30;;;;;;;22.44;78.45;99734.94;4982174;28;20057;-72
2023/07/07 04:32:05;;;;;;;0.30;0.30;;;;;;;22.72;77.39;99722.94;5026831;28;20046;-72
2023/07/07 04:34:31;;;;;;;0.30;0.30;;;;;;;22.83;76.15;99712.06;4990751;28;20053;-71
2023/07/07 04:36:58;;;;;;;0.20;0.20;;;;;;;22.75;76.00;99717.44;5025459;28;20076;-72
2023/07/07 04:39:24;;;;;;;0.30;0.30;;;;;;;22.65;76.40;99724.34;5024978;28;20520;-72
2023/07/07 04:41:51;;;;;;;0.30;0.30;;;;;;;22.58;77.13;99715.00;4993776;28;20052;-71
2023/07/07 04:44:17;;;;;;;0.30;0.30;;;;;;;22.57;76.97;99721.75;5023634;28;20068;-71
2023/07/07 04:46:43;;;;;;;0.20;0.20;;;;;;;22.56;76.51;99731.28;5023824;28;20539;-72
2023/07/07 04:49:11;;;;;;;0.30;0.30;;;;;;;22.54;76.74;99731.63;5004976;28;20041;-71
2023/07/07 04:51:39;;;;;;;0.30;0.30;;;;;;;22.55;75.94;99729.66;5024289;28;20424;-72
2023/07/07 04:54:07;;;;;;;0.30;0.30;;;;;;;22.60;75.92;99729.38;5006282;28;20051;-72
2023/07/07 04:56:33;;;;;;;0.30;0.30;;;;;;;22.62;76.38;99727.03;5023236;28;20069;-71
2023/07/07 04:58:59;;;;;;;0.30;0.30;;;;;;;22.58;75.23;99726.97;5023821;28;20053;-71
2023/07/07 05:01:27;;;;;;;0.30;0.30;;;;;;;22.51;75.62;99712.84;5007024;28;20045;-72
2023/07/07 05:03:55;;;;;;;0.30;0.30;;;;;;;22.55;75.86;99724.09;5024251;28;20420;-72
2023/07/07 05:06:25;;;;;;;0.30;0.30;;;;;;;22.55;74.86;99715.72;5024113;28;20041;-71
2023/07/07 05:08:52;;;;;;;0.30;0.30;;;;;;;22.55;74.60;99718.50;5025550;28;20354;-72
2023/07/07 05:11:20;;;;;;;0.30;0.30;;;;;;;22.61;74.24;99719.84;5022584;28;20441;-71
2023/07/07 05:13:48;;;;;;;0.30;0.30;;;;;;;22.64;74.18;99708.81;5022151;28;20049;-71
2023/07/07 05:16:18;;;;;;;0.30;0.30;;;;;;;22.79;73.28;99712.78;5022473;28;20041;-71
2023/07/07 05:18:44;;;;;;;0.30;0.30;;;;;;;22.93;73.57;99701.16;5016271;28;20061;-72
2023/07/07 05:21:12;;;;;;;0.30;0.30;;;;;;;23.00;73.43;99699.69;5021858;28;20053;-72
2023/07/07 05:23:40;;;;;;;0.30;0.30;;;;;;;22.98;73.37;99694.50;4989323;28;20304;-72
2023/07/07 05:26:07;;;;;;;0.30;0.30;;;;;;;23.16;73.40;99703.28;5024886;28;20076;-72
2023/07/07 05:28:33;;;;;;;0.30;0.30;;;;;;;23.35;72.98;99705.34;5026225;28;20430;-72
2023/07/07 05:30:59;;;;;;;0.30;0.30;;;;;;;23.39;72.78;99699.84;5029177;28;20123;-72
2023/07/07 05:33:27;;;;;;;0.30;0.30;;;;;;;23.51;72.71;99727.63;5024565;28;20057;-72
2023/07/07 05:35:55;;;;;;;0.30;0.30;;;;;;;23.47;72.84;99729.50;5027019;28;20046;-72
2023/07/07 05:38:23;;;;;;;0.30;0.30;;;;;;;23.35;72.98;99716.50;5005330;28;20548;-72
2023/07/07 05:40:51;;;;;;;0.30;0.30;;;;;;;23.23;74.34;99708.22;5023165;28;20140;-71
2023/07/07 05:43:19;;;;;;;0.38;0.38;;;;;;;23.23;74.67;99695.09;5010655;28;20534;-72
2023/07/07 05:45:45;;;;;;;0.30;0.30;;;;;;;23.45;74.42;99684.41;4983376;28;20052;-72
2023/07/07 05:48:13;;;;;;;0.30;0.30;;;;;;;23.59;73.71;99685.91;4989909;28;20100;-71
2023/07/07 05:50:41;;;;;;;0.30;0.30;;;;;;;23.51;73.41;99684.94;5022163;28;20053;-72
2023/07/07 05:53:09;;;;;;;0.30;0.30;;;;;;;23.49;73.04;99692.88;5022334;28;20566;-72
2023/07/07 05:55:35;;;;;;;0.30;0.30;;;;;;;23.39;73.77;99699.03;5022572;28;20064;-72
2023/07/07 05:58:05;;;;;;;0.30;0.30;;;;;;;23.38;73.71;99701.00;5023721;28;20046;-72
2023/07/07 06:00:33;;;;;;;0.30;0.30;;;;;;;23.37;73.75;99686.25;5018703;28;20064;-72
2023/07/07 06:03:00;;;;;;;0.30;0.30;;;;;;;23.41;74.09;99685.50;5023707;28;20049;-73
2023/07/07 06:05:27;;;;;;;0.30;0.30;;;;;;;23.46;73.95;99686.03;5022785;28;20054;-72
2023/07/07 06:07:54;;;;;;;0.30;0.30;;;;;;;23.47;73.86;99696.03;5022666;28;20132;-72
2023/07/07 06:10:22;;;;;;;0.30;0.30;;;;;;;23.48;73.89;99697.63;5020690;28;20085;-71
2023/07/07 06:12:48;;;;;;;0.30;0.30;;;;;;;23.47;73.75;99698.03;5021799;28;20202;-73
2023/07/07 06:15:16;;;;;;;0.30;0.30;;;;;;;23.43;73.95;99702.72;5021172;28;20046;-72
2023/07/07 06:17:44;;;;;;;0.30;0.30;;;;;;;23.48;73.44;99691.25;5021816;28;20141;-72
2023/07/07 06:20:12;;;;;;;0.30;0.30;;;;;;;23.45;73.33;99689.22;5022447;28;20037;-72
2023/07/07 06:22:38;;;;;;;0.30;0.30;;;;;;;23.43;73.67;99683.19;5023799;28;20057;-72
2023/07/07 06:25:05;;;;;;;0.30;0.30;;;;;;;23.49;73.42;99678.94;5023027;28;20045;-72
2023/07/07 06:27:31;;;;;;;0.30;0.30;;;;;;;23.57;72.81;99683.50;4985951;28;20520;-72
2023/07/07 06:29:57;;;;;;;0.30;0.30;;;;;;;23.58;72.87;99685.13;5018890;28;20049;-72
2023/07/07 06:32:25;;;;;;;0.30;0.30;;;;;;;23.58;72.99;99675.91;5021978;28;20048;-72
2023/07/07 06:34:52;;;;;;;0.35;0.35;;;;;;;23.59;73.03;99686.72;5021053;28;20048;-72
2023/07/07 06:37:18;;;;;;;0.30;0.30;;;;;;;23.61;72.74;99681.59;5021789;28;20045;-72
2023/07/07 06:39:44;;;;;;;0.30;0.30;;;;;;;23.65;72.35;99695.63;5011848;28;20042;-73
2023/07/07 06:42:10;;;;;;;0.40;0.40;;;;;;;23.58;72.64;99690.69;4970138;28;20104;-72
2023/07/07 06:44:45;;;;;;;0.30;0.30;;;;;;;23.58;72.47;99682.31;5006344;28;20308;-72
2023/07/07 06:47:13;;;;;;;0.30;0.30;;;;;;;23.67;72.74;99690.47;5023238;28;20049;-71
2023/07/07 06:49:41;;;;;;;0.40;0.40;;;;;;;23.79;71.88;99684.72;5016261;28;20299;-72
2023/07/07 06:52:08;;;;;;;0.30;0.30;;;;;;;23.86;71.46;99686.84;4999284;28;20532;-70
2023/07/07 06:54:34;;;;;;;0.30;0.30;;;;;;;23.90;71.06;99678.56;4984288;28;20052;-71
2023/07/07 06:57:01;;;;;;;0.30;0.30;;;;;;;23.88;71.44;99684.53;5002497;28;20037;-71
2023/07/07 06:59:27;;;;;;;0.30;0.30;;;;;;;23.93;71.36;99692.59;5018343;28;20088;-71
2023/07/07 07:01:53;;;;;;;0.37;0.37;;;;;;;24.00;71.23;99693.91;5013892;28;20045;-72
2023/07/07 07:04:19;;;;;;;0.30;0.30;;;;;;;24.05;70.57;99688.84;5017009;28;20136;-72
2023/07/07 07:06:48;;;;;;;0.30;0.30;;;;;;;24.10;70.57;99687.75;5012470;28;20045;-72
2023/07/07 07:09:14;;;;;;;0.30;0.30;;;;;;;24.15;70.10;99701.41;4997509;28;20061;-71
2023/07/07 07:11:40;;;;;;;0.30;0.30;;;;;;;24.04;69.46;99704.00;5019966;28;20042;-73
2023/07/07 07:14:07;;;;;;;0.30;0.30;;;;;;;23.98;69.31;99705.44;5000049;28;20624;-73
2023/07/07 07:16:33;;;;;;;0.30;0.30;;;;;;;23.94;69.77;99708.16;5016961;28;20528;-72
2023/07/07 07:18:59;;;;;;;0.30;0.30;;;;;;;23.89;69.58;99716.03;4998809;28;20056;-71
2023/07/07 07:21:25;;;;;;;0.30;0.30;;;;;;;23.81;69.95;99720.66;5019100;28;20056;-72
2023/07/07 07:23:53;;;;;;;0.28;0.22;;;;;;;23.71;70.31;99727.63;5023299;28;20560;-71
2023/07/07 07:26:19;;;;;;;0.30;0.30;;;;;;;23.67;70.34;99732.34;5014708;28;20045;-72
2023/07/07 07:28:45;;;;;;;0.30;0.30;;;;;;;23.63;70.65;99737.00;5016227;28;20107;-71
2023/07/07 07:31:12;;;;;;;0.20;0.20;;;;;;;23.62;71.10;99744.59;5020712;28;20056;-72
2023/07/07 07:33:38;;;;;;;;;;;;;;;23.62;71.38;99747.38;5004317;28;20797;-72
2023/07/07 07:36:04;;;;;;;0.30;0.30;;;;;;;23.68;70.96;99763.81;5015036;28;19924;-71
2023/07/07 07:38:31;;;;;;;0.30;0.30;;;;;;;23.68;71.06;99770.22;5018937;28;20531;-72
2023/07/07 07:40:58;;;;;;;0.30;0.30;;;;;;;23.72;70.35;99790.63;5015489;28;20586;-72
2023/07/07 07:43:24;;;;;;;0.30;0.30;;;;;;;23.81;69.79;99781.25;5017286;28;20060;-72
2023/07/07 07:45:50;;;;;;;0.30;0.30;;;;;;;23.90;69.80;99785.47;5013951;28;20521;-72
2023/07/07 07:48:17;;;;;;;0.30;0.30;;;;;;;24.05;68.96;99792.16;5015452;28;20128;-72
2023/07/07 07:50:44;;;;;;;0.30;0.30;;;;;;;24.09;69.09;99792.25;4996635;28;20477;-71
2023/07/07 07:53:10;;;;;;;0.65;0.30;;;;;;;24.15;69.18;99798.34;5002489;28;20204;-71
2023/07/07 07:55:36;;;;;;;0.30;0.30;;;;;;;24.18;68.84;99812.38;5019000;28;20062;-72
2023/07/07 07:58:03;;;;;;;0.30;0.30;;;;;;;24.17;69.39;99824.72;5016990;28;20132;-71
2023/07/07 08:00:29;;;;;;;0.30;0.30;;;;;;;24.12;69.84;99830.59;5020228;28;20103;-72
2023/07/07 08:02:56;;;;;;;0.37;0.37;;;;;;;24.04;70.54;99828.81;5015211;28;20053;-71
2023/07/07 08:05:22;;;;;;;0.30;0.30;;;;;;;23.96;71.23;99821.44;4991724;28;20058;-71
2023/07/07 08:07:48;;;;;;;0.30;0.30;;;;;;;23.93;71.82;99828.56;5004867;28;20440;-72
2023/07/07 08:10:14;;;;;;;0.30;0.30;;;;;;;23.90;72.51;99821.75;4988487;28;20054;-72
2023/07/07 08:12:40;;;;;;;0.30;0.30;;;;;;;23.83;73.23;99818.78;4987110;28;20037;-72
2023/07/07 08:15:10;;;;;;;0.30;0.30;;;;;;;23.71;73.92;99800.19;5016846;28;20422;-72
2023/07/07 08:17:36;;;;;;;0.30;0.30;;;;;;;23.71;74.38;99814.13;5015710;28;20046;-73
2023/07/07 08:20:05;;;;;;;0.30;0.30;;;;;;;23.71;74.55;99793.78;5020855;28;20056;-72
2023/07/07 08:22:31;;;;;;;0.30;0.30;;;;;;;23.67;74.92;99776.16;5019895;28;20061;-72
2023/07/07 08:24:58;;;;;;;0.30;0.30;;;;;;;23.61;75.53;99758.88;5017537;28;20457;-72
2023/07/07 08:27:26;;;;;;;0.30;0.30;;;;;;;23.62;74.85;99764.13;5015947;28;20048;-72
2023/07/07 08:29:54;;;;;;;0.30;0.30;;;;;;;23.58;74.63;99768.00;5020813;28;20038;-72
2023/07/07 08:32:23;;;;;;;0.30;0.30;;;;;;;23.50;75.33;99764.22;5003778;28;20080;-71
2023/07/07 08:34:50;;;;;;;0.30;0.30;;;;;;;23.44;75.26;99766.50;5020625;28;20041;-71
2023/07/07 08:37:17;;;;;;;0.30;0.30;;;;;;;23.45;76.00;99747.78;5003636;28;20533;-72
2023/07/07 08:39:43;;;;;;;;;;;;;;;23.55;76.31;99746.41;5024281;28;20061;-72
2023/07/07 08:42:21;;;;;;;0.30;0.30;;;;;;;23.69;75.51;99732.78;5020817;28;20371;-71
2023/07/07 08:44:47;;;;;;;0.30;0.30;;;;;;;23.82;74.83;99729.84;5018906;28;20599;-72
2023/07/07 08:47:25;;;;;;;0.33;0.33;;;;;;;23.97;74.32;99716.97;5008299;28;20077;-73
2023/07/07 08:49:58;;;;;;;0.30;0.30;;;;;;;24.09;73.74;99705.69;5022697;28;20133;-72
2023/07/07 08:52:37;;;;;;;0.30;0.30;;;;;;;24.14;72.93;99699.78;4996423;28;20046;-71
2023/07/07 08:55:17;;;;;;;0.30;0.30;;;;;;;24.22;73.14;99703.53;5018262;28;20402;-71
2023/07/07 08:57:50;;;;;;;0.32;0.30;;;;;;;24.35;71.24;99721.72;5014541;28;20119;-72
2023/07/07 09:00:22;;;;;;;0.30;0.30;;;;;;;24.35;71.06;99723.69;5018681;28;20041;-72
2023/07/07 09:03:14;;;;;;;0.30;0.30;;;;;;;24.35;70.84;99723.69;5006934;28;20076;-72
2023/07/07 09:05:55;;;;;;;0.30;0.30;;;;;;;24.31;71.24;99718.06;5030195;28;20053;-72
2023/07/07 09:08:29;;;;;;;0.30;0.30;;;;;;;24.27;70.59;99708.00;5015265;28;20138;-72
2023/07/07 09:11:06;;;;;;;0.30;0.30;;;;;;;24.24;70.40;99709.53;5014742;28;20080;-71
2023/07/07 09:13:35;;;;;;;0.30;0.30;;;;;;;24.20;70.82;99719.84;5016797;28;20045;-71
2023/07/07 09:16:10;;;;;;;0.30;0.30;;;;;;;24.19;70.13;99726.63;5021787;28;20045;-72
2023/07/07 09:18:41;;;;;;;0.30;0.30;;;;;;;24.04;70.25;99733.88;5017751;28;20050;-72
2023/07/07 09:21:18;;;;;;;0.30;0.30;;;;;;;23.80;71.16;99721.81;5018276;28;20103;-72
2023/07/07 09:23:44;;;;;;;;;;;;;;;23.73;71.90;99716.91;5034957;28;20092;-72
2023/07/07 09:26:18;;;;;;;0.30;0.30;;;;;;;23.69;71.83;99718.81;4998215;28;19975;-72
2023/07/07 09:28:47;;;;;;;0.30;0.30;;;;;;;23.80;71.25;99719.03;5013100;28;20548;-71
2023/07/07 09:31:26;;;;;;;0.30;0.30;;;;;;;23.86;70.68;99719.56;5018956;28;20514;-72
2023/07/07 09:33:54;;;;;;;0.30;0.30;;;;;;;24.00;70.74;99732.97;5014944;28;20064;-72
2023/07/07 09:36:28;;;;;;;0.30;0.30;;;;;;;24.11;70.72;99738.81;4997207;28;20149;-72
2023/07/07 09:39:07;;;;;;;0.30;0.30;;;;;;;24.23;70.29;99747.03;5023538;28;20189;-71
2023/07/07 09:41:46;;;;;;;0.30;0.30;;;;;;;24.30;70.67;99727.63;5010475;28;20128;-70
2023/07/07 09:44:29;;;;;;;0.30;0.30;;;;;;;24.43;69.97;99733.03;5020734;28;20069;-71
2023/07/07 09:47:06;;;;;;;0.40;0.40;;;;;;;24.67;68.58;99731.06;5020350;28;20132;-70
2023/07/07 09:49:41;;;;;;;0.40;0.40;;;;;;;24.93;67.10;99735.91;5007036;28;20083;-72
2023/07/07 09:52:24;;;;;;;0.30;0.30;;;;;;;25.11;66.29;99740.97;5019477;28;20037;-72
2023/07/07 09:54:52;;;;;;;0.38;0.38;;;;;;;25.23;65.49;99737.19;5017477;28;20065;-72
2023/07/07 09:57:24;;;;;;;0.40;0.40;;;;;;;25.23;65.17;99734.41;5034711;28;20066;-72
2023/07/07 09:59:53;;;;;;;0.40;0.40;;;;;;;25.42;64.96;99730.66;5013319;28;20060;-72
2023/07/07 10:02:23;;;;;;;0.65;0.40;;;;;;;25.77;63.13;99737.97;5011601;28;20049;-72
2023/07/07 10:04:54;;;;;;;0.43;0.43;;;;;;;26.25;61.33;99745.75;5014764;28;20539;-72
2023/07/07 10:07:24;;;;;;;0.40;0.40;;;;;;;26.77;59.98;99750.66;5020197;28;20077;-72
2023/07/07 10:09:51;;;;;;;0.50;0.50;;;;;;;26.93;59.83;99756.03;4984234;28;20188;-72
2023/07/07 10:12:18;;;;;;;0.40;0.40;;;;;;;27.20;58.51;99761.47;4986868;28;20417;-72
2023/07/07 10:14:45;;;;;;;0.50;0.50;;;;;;;27.51;57.79;99762.06;5004795;28;20142;-71
2023/07/07 10:17:25;;;;;;;0.50;0.50;;;;;;;27.70;56.02;99752.56;5004803;28;20056;-71
2023/07/07 10:19:54;;;;;;;0.60;0.60;;;;;;;28.12;54.38;99741.91;5022132;28;20053;-72
2023/07/07 10:22:23;;;;;;;0.50;0.50;;;;;;;28.50;53.34;99741.63;4996364;28;20053;-73
2023/07/07 10:24:49;;;;;;;0.50;0.50;;;;;;;28.47;53.53;99736.78;4998164;28;20037;-72
2023/07/07 10:27:18;;;;;;;0.40;0.40;;;;;;;28.42;54.28;99731.56;5016344;28;20058;-71
2023/07/07 10:29:46;;;;;;;0.40;0.40;;;;;;;28.40;52.59;99726.31;5015971;28;20310;-72
2023/07/07 10:32:14;;;;;;;0.40;0.40;;;;;;;28.15;53.42;99717.81;5016746;28;20161;-72
2023/07/07 10:34:45;;;;;;;0.40;0.40;;;;;;;27.88;53.47;99706.91;5012524;28;20049;-71
2023/07/07 10:37:18;;;;;;;0.30;0.30;;;;;;;27.40;54.91;99708.69;5015032;28;20136;-72
2023/07/07 10:39:49;;;;;;;0.40;0.40;;;;;;;27.04;56.72;99712.06;4994431;28;20061;-72
2023/07/07 10:42:15;;;;;;;0.30;0.30;;;;;;;26.70;56.81;99723.38;5016737;28;20084;-72
2023/07/07 10:44:42;;;;;;;0.30;0.30;;;;;;;26.46;57.08;99717.16;5013821;28;20542;-70
2023/07/07 10:47:08;;;;;;;0.30;0.30;;;;;;;26.21;58.21;99716.91;5021409;28;20119;-73
2023/07/07 10:49:35;;;;;;;0.30;0.30;;;;;;;25.97;59.52;99721.78;5017077;28;20053;-72
2023/07/07 10:52:21;;;;;;;0.30;0.30;;;;;;;25.72;60.35;99722.31;5021530;28;20050;-71
2023/07/07 10:55:03;;;;;;;0.30;0.30;;;;;;;25.47;61.87;99727.53;5016033;28;20064;-72
2023/07/07 10:57:44;;;;;;;0.30;0.30;;;;;;;25.25;62.49;99724.41;4804232;28;10000861;-72
2023/07/07 11:00:37;;;;;;;0.30;0.30;;;;;;;25.16;63.07;99724.69;5012384;28;20361;-73
2023/07/07 11:03:37;;;;;;;0.30;0.30;;;;;;;25.09;63.44;99707.00;5013940;28;20072;-73
2023/07/07 11:06:10;;;;;;;0.30;0.30;;;;;;;24.97;63.85;99691.25;4998472;28;20614;-73
2023/07/07 11:08:42;;;;;;;0.30;0.30;;;;;;;24.99;63.91;99678.50;4996981;28;20420;-71
2023/07/07 11:11:27;;;;;;;0.30;0.30;;;;;;;24.99;63.31;99635.75;5003369;28;20081;-73
2023/07/07 11:14:04;;;;;;;0.30;0.30;;;;;;;25.09;62.98;99651.88;5013758;28;20052;-73
2023/07/07 11:16:37;;;;;;;0.30;0.30;;;;;;;25.20;62.81;99669.59;4998226;28;20493;-73
2023/07/07 11:19:31;;;;;;;0.52;0.40;;;;;;;25.36;62.33;99682.59;5014814;28;20058;-73
2023/07/07 11:22:06;;;;;;;0.38;0.38;;;;;;;25.56;62.13;99694.50;4999568;28;20100;-74
2023/07/07 11:24:37;;;;;;;0.40;0.40;;;;;;;25.82;61.27;99703.22;5013312;28;20289;-74
2023/07/07 11:27:37;;;;;;;0.40;0.40;;;;;;;26.10;60.50;99694.34;5011034;28;20099;-74
2023/07/07 11:30:15;;;;;;;0.50;0.50;;;;;;;26.78;57.73;99703.81;5012588;28;20518;-74
2023/07/07 11:32:51;;;;;;;0.77;0.77;;;;;;;27.66;55.74;99695.59;5013766;28;20064;-74
2023/07/07 11:35:33;;;;;;;0.60;0.60;;;;;;;29.18;51.61;99695.00;5019401;28;20183;-75
2023/07/07 11:38:19;;;;;;;0.80;0.80;;;;;;;30.56;47.24;99695.19;5017415;28;20466;-73
2023/07/07 11:40:57;;;;;;;0.80;0.80;;;;;;;31.19;45.38;99689.81;5007614;28;20111;-74
2023/07/07 11:43:49;;;;;;;0.70;0.70;;;;;;;31.64;44.12;99680.44;5022371;28;20051;-73
2023/07/07 11:46:31;;;;;;;0.50;0.50;;;;;;;31.01;45.01;99668.22;5021615;28;20053;-73
2023/07/07 11:49:12;;;;;;;0.40;0.40;;;;;;;29.84;47.69;99678.72;5019185;28;20041;-72